Terminal Aerodrome Forecast
Issued by NWS

Home | Current Version | Previous Version | Text Only | Print | Product List | Glossary On
Versions: 1 2 3 4 5 6 7 8 9 10 11 12 13 14 15 16 17 18 19 20 21 22 23 24 25 26 27 28 29 30 31 32 33 34 35 36 37 38 39 40 41 42 43 44 45 46 47 48 49 50
000
FTUS43 KMKX 261128
TAFUES
TAF
KUES 261128Z 2612/2712 19008KT P6SM SCT010
     FM261600 17010KT P6SM VCSH SCT030 BKN070
     FM261800 15011G18KT P6SM SHRA OVC035
     FM262200 18012G22KT P6SM SHRA BKN035
     FM270000 19011G18KT P6SM BKN040
     FM270300 22011G18KT P6SM SCT040
     FM270900 24007KT P6SM SCT035
     FM271000 24007KT P6SM BKN035=

USA.gov is the U.S. government's official web portal to all federal, state and local government web resources and services.